Accueil
METAR-TAF:

METAR-TAF

Aéroports :

Aviano Air Base

Aviano, Italie

latitude: 46-02N, longitude: 012-36E, altitude: 128 m

METAR: absent

Heure: 03:30 (01:30 UTC)

Prévision

Le bulletin a été fait il y a 8 heures et 30 minutes, à 17:00 UTC
Prévision valable du 19 à 18 UTC au 20 à 03 UTC
Vent 5 kt de direction variable
Visibilité 10 km ou plus
Nuages épars à une hauteur de 5000 ft
Probabilité 30% :
Temporairement
du 19 à 18 UTC au 19 à 21 UTC
Visibilité: 5000 m
Quelques nuages à une hauteur de 2000 ft, Cumulonimbus.
Nuages épars à une hauteur de 5000 ft
averses de pluie

TAF: LIPA 191700Z 1918/2003 VRB05KT 9999 SCT050 PROB30 TEMPO 1918/1921 5000 SHRA FEW020CB SCT050

Observations et prévisions météorologiques de plus de 4000 aéroports (messages METAR et TAF).

Les stations disponibles sont représentées par des disques jaunes et rouges sur la carte.

Passer la souris dessus pour voir le nom de la station.

Cliquer dessus pour voir les observations et prévisions météorologiques.

Pour changer de carte: cliquez sur les boutons verts avec une croix noire pour zoomer, sur le bouton vert avec un tiret pour effectuer un zoom arrière, ou sur les flèches vertes pour les cartes adjacentes.


METAR-TAF: